createdAt,value
2017-08-17T00:01:46.832Z,11.55
2017-08-17T00:04:13.569Z,13.75
2017-08-17T00:06:40.266Z,12.88
2017-08-17T00:09:06.949Z,13.18
2017-08-17T00:11:33.693Z,13.60
2017-08-17T00:14:00.396Z,13.57
2017-08-17T00:16:27.093Z,13.60
2017-08-17T00:18:53.806Z,13.23
2017-08-17T00:21:20.490Z,12.65
2017-08-17T00:23:47.196Z,14.20
2017-08-17T00:26:13.905Z,13.52
2017-08-17T00:28:40.607Z,13.62
2017-08-17T00:31:07.317Z,14.13
2017-08-17T00:33:34.021Z,13.75
2017-08-17T00:36:00.732Z,13.65
2017-08-17T00:38:27.426Z,15.00
2017-08-17T00:40:54.128Z,14.38
2017-08-17T00:43:20.821Z,13.70
2017-08-17T00:45:47.553Z,13.45
2017-08-17T00:48:14.240Z,13.75
2017-08-17T00:50:40.951Z,16.23
2017-08-17T00:53:07.625Z,14.75
2017-08-17T00:55:34.330Z,14.30
2017-08-17T00:58:01.019Z,14.10
2017-08-17T01:00:27.701Z,12.68
2017-08-17T01:02:54.402Z,14.35
2017-08-17T01:05:21.084Z,13.82
2017-08-17T01:07:48.021Z,14.05
2017-08-17T01:10:14.717Z,14.90
2017-08-17T01:12:41.431Z,15.55
2017-08-17T01:15:08.122Z,14.30
2017-08-17T01:17:34.832Z,14.50
2017-08-17T01:20:01.525Z,14.18
2017-08-17T01:22:28.437Z,15.02
2017-08-17T01:24:55.124Z,16.70
2017-08-17T01:27:22.081Z,15.52
2017-08-17T01:29:48.771Z,15.52
2017-08-17T01:32:15.457Z,14.73
2017-08-17T01:34:42.145Z,15.52
2017-08-17T01:37:08.839Z,14.65
2017-08-17T01:39:35.533Z,15.18
2017-08-17T01:42:02.209Z,15.98
2017-08-17T01:44:29.089Z,15.80
2017-08-17T01:46:55.768Z,15.45
2017-08-17T01:49:22.449Z,16.62
2017-08-17T01:51:49.140Z,16.33
2017-08-17T01:54:15.827Z,17.15
2017-08-17T01:56:42.528Z,17.48
2017-08-17T01:59:09.434Z,19.37
2017-08-17T02:01:36.128Z,18.10
2017-08-17T02:04:02.818Z,19.10
2017-08-17T02:06:29.500Z,19.08
2017-08-17T02:08:56.186Z,19.20
2017-08-17T02:11:22.909Z,18.75
2017-08-17T02:13:49.596Z,19.17
2017-08-17T02:16:16.277Z,20.48
2017-08-17T02:18:42.978Z,20.12
2017-08-17T02:21:09.667Z,20.77
2017-08-17T02:23:36.353Z,19.83
2017-08-17T02:26:03.029Z,19.42
2017-08-17T02:28:29.708Z,19.65
2017-08-17T02:30:56.652Z,18.67
2017-08-17T02:33:23.345Z,20.20
2017-08-17T02:35:50.033Z,20.33
2017-08-17T02:38:16.723Z,20.10
2017-08-17T02:40:43.412Z,20.67
2017-08-17T02:43:10.124Z,19.70
2017-08-17T02:45:36.796Z,21.55
2017-08-17T02:48:03.481Z,18.67
2017-08-17T02:50:30.185Z,21.85
2017-08-17T02:52:56.865Z,20.62
2017-08-17T02:55:23.554Z,20.17
2017-08-17T02:57:50.247Z,19.77
2017-08-17T03:00:16.944Z,21.37
2017-08-17T03:02:43.864Z,20.77
2017-08-17T03:05:10.772Z,20.23
2017-08-17T03:07:37.461Z,20.30
2017-08-17T03:10:04.172Z,19.62
2017-08-17T03:12:30.851Z,25.65
2017-08-17T03:14:57.570Z,19.80
2017-08-17T03:17:24.251Z,20.12
2017-08-17T03:19:50.924Z,19.33
2017-08-17T03:22:17.611Z,23.27
2017-08-17T03:24:44.301Z,19.25
2017-08-17T03:27:10.990Z,20.85
2017-08-17T03:29:37.668Z,21.00
2017-08-17T03:32:04.369Z,18.98
2017-08-17T03:34:31.068Z,19.65
2017-08-17T03:36:57.977Z,19.33
2017-08-17T03:39:24.661Z,18.33
2017-08-17T03:41:51.356Z,20.15
2017-08-17T03:44:18.284Z,20.52
2017-08-17T03:46:44.990Z,19.73
2017-08-17T03:49:12.102Z,19.45
2017-08-17T03:51:38.785Z,19.33
2017-08-17T03:54:05.498Z,19.17
2017-08-17T03:56:32.178Z,19.52
2017-08-17T03:58:59.116Z,19.40
2017-08-17T04:01:25.797Z,20.00
2017-08-17T04:03:52.512Z,18.90
2017-08-17T04:06:19.220Z,21.02
2017-08-17T04:08:45.966Z,19.08
2017-08-17T04:11:12.647Z,18.45
2017-08-17T04:13:39.339Z,19.92
2017-08-17T04:16:06.029Z,18.45
2017-08-17T04:18:32.713Z,20.67
2017-08-17T04:20:59.431Z,19.00
2017-08-17T04:23:26.147Z,18.15
2017-08-17T04:25:53.086Z,24.33
2017-08-17T04:28:20.004Z,21.35
2017-08-17T04:30:46.714Z,21.75
2017-08-17T04:33:13.406Z,19.77
2017-08-17T04:35:40.120Z,17.75
2017-08-17T04:38:06.808Z,19.20
2017-08-17T04:40:33.512Z,18.00
2017-08-17T04:43:00.208Z,20.23
2017-08-17T04:45:26.890Z,19.50
2017-08-17T04:47:53.578Z,18.12
2017-08-17T04:50:20.423Z,16.50
2017-08-17T04:52:47.346Z,17.90
2017-08-17T04:55:14.033Z,17.98
2017-08-17T04:57:52.416Z,19.05
2017-08-17T05:00:19.097Z,18.00
2017-08-17T05:02:45.789Z,17.67
2017-08-17T05:05:12.469Z,20.00
2017-08-17T05:07:39.184Z,17.25
2017-08-17T05:10:05.901Z,19.40
2017-08-17T05:12:32.625Z,18.02
2017-08-17T05:14:59.317Z,18.05
2017-08-17T05:17:26.048Z,18.42
2017-08-17T05:19:52.733Z,19.37
2017-08-17T05:22:19.416Z,18.37
2017-08-17T05:24:46.109Z,21.15
2017-08-17T05:27:12.801Z,19.30
2017-08-17T05:29:39.497Z,19.42
2017-08-17T05:32:06.187Z,22.52
2017-08-17T05:34:32.872Z,18.67
2017-08-17T05:36:59.558Z,19.25
2017-08-17T05:39:26.248Z,18.12
2017-08-17T05:41:52.929Z,17.95
2017-08-17T05:44:19.715Z,18.23
2017-08-17T05:46:46.406Z,19.70
2017-08-17T05:49:13.146Z,20.15
2017-08-17T05:51:39.831Z,20.67
2017-08-17T05:54:06.530Z,18.42
2017-08-17T05:56:33.237Z,19.90
2017-08-17T05:58:59.927Z,20.15
2017-08-17T06:01:26.626Z,18.23
2017-08-17T06:03:53.325Z,19.37
2017-08-17T06:06:20.233Z,20.00
2017-08-17T06:08:46.918Z,20.60
2017-08-17T06:11:13.604Z,19.58
2017-08-17T06:13:40.309Z,19.62
2017-08-17T06:16:06.996Z,20.05
2017-08-17T06:18:33.679Z,19.83
2017-08-17T06:21:00.360Z,21.10
2017-08-17T06:23:27.054Z,19.40
2017-08-17T06:25:53.738Z,20.83
2017-08-17T06:28:20.459Z,21.37
2017-08-17T06:30:47.136Z,21.37
2017-08-17T06:33:13.823Z,18.47
2017-08-17T06:35:40.732Z,19.97
2017-08-17T06:38:07.416Z,18.07
2017-08-17T06:40:34.152Z,20.13
2017-08-17T06:43:00.832Z,19.17
2017-08-17T06:45:27.509Z,18.17
2017-08-17T06:47:54.189Z,18.23
2017-08-17T06:50:21.094Z,16.13
2017-08-17T06:52:47.797Z,16.47
2017-08-17T06:55:14.489Z,14.30
2017-08-17T06:57:41.201Z,14.40
2017-08-17T07:00:07.877Z,14.50
2017-08-17T07:02:34.576Z,14.23
2017-08-17T07:05:01.270Z,15.83
2017-08-17T07:07:27.982Z,14.80
2017-08-17T07:09:54.672Z,16.00
2017-08-17T07:12:21.376Z,15.20
2017-08-17T07:14:48.076Z,14.80
2017-08-17T07:17:14.793Z,14.10
2017-08-17T07:19:41.474Z,14.37
2017-08-17T07:22:08.148Z,14.57
2017-08-17T07:24:34.834Z,15.17
2017-08-17T07:27:01.513Z,13.17
2017-08-17T07:29:28.205Z,13.63
2017-08-17T07:31:55.116Z,14.20
2017-08-17T07:34:21.801Z,15.13
2017-08-17T07:36:48.487Z,13.80
2017-08-17T07:39:15.198Z,15.13
2017-08-17T07:41:41.898Z,13.97
2017-08-17T07:44:08.630Z,14.13
2017-08-17T07:46:35.323Z,14.60
2017-08-17T07:49:02.021Z,13.40
2017-08-17T07:51:28.704Z,13.90
2017-08-17T07:53:55.385Z,12.63
2017-08-17T07:56:22.082Z,15.27
2017-08-17T07:58:48.796Z,13.20
2017-08-17T08:01:15.470Z,14.00
2017-08-17T08:03:42.401Z,13.60
2017-08-17T08:06:09.107Z,12.70
2017-08-17T08:08:35.977Z,14.57
2017-08-17T08:11:02.688Z,14.03
2017-08-17T08:13:29.377Z,14.77
2017-08-17T08:15:56.103Z,14.10
2017-08-17T08:18:22.793Z,13.23
2017-08-17T08:20:49.473Z,13.90
2017-08-17T08:23:16.266Z,13.33
2017-08-17T08:25:42.986Z,13.93
2017-08-17T08:28:10.033Z,12.87
2017-08-17T08:30:36.713Z,13.00
2017-08-17T08:33:03.404Z,15.60
2017-08-17T08:35:30.080Z,13.87
2017-08-17T08:37:56.768Z,14.10
2017-08-17T08:40:23.449Z,16.00
2017-08-17T08:42:50.136Z,14.70
2017-08-17T08:45:16.901Z,13.83
2017-08-17T08:47:43.619Z,14.70
2017-08-17T08:50:10.318Z,15.47
2017-08-17T08:52:37.042Z,13.17
2017-08-17T08:55:03.786Z,13.67
2017-08-17T08:57:30.503Z,14.47
2017-08-17T08:59:57.202Z,13.00
2017-08-17T09:02:23.896Z,12.00
2017-08-17T09:04:50.576Z,11.60
2017-08-17T09:07:17.252Z,10.67
2017-08-17T09:09:43.940Z,11.87
2017-08-17T09:12:10.625Z,12.27
2017-08-17T09:14:37.309Z,11.70
2017-08-17T09:17:04.241Z,10.10
2017-08-17T09:19:30.917Z,10.87
2017-08-17T09:21:57.590Z,10.03
2017-08-17T09:24:24.294Z,9.77
2017-08-17T09:26:50.985Z,10.63
2017-08-17T09:29:17.677Z,10.80
2017-08-17T09:31:44.371Z,10.83
2017-08-17T09:34:11.131Z,10.73
2017-08-17T09:36:37.908Z,11.93
2017-08-17T09:39:04.691Z,11.10
2017-08-17T09:41:31.496Z,10.50
2017-08-17T09:43:58.266Z,10.83
2017-08-17T09:46:25.102Z,11.40
2017-08-17T09:48:51.877Z,11.00
2017-08-17T09:51:18.670Z,9.70
2017-08-17T09:53:45.471Z,9.20
2017-08-17T09:56:12.241Z,8.27
2017-08-17T09:58:38.966Z,7.97
2017-08-17T10:01:05.654Z,8.23
2017-08-17T10:03:32.362Z,8.23
2017-08-17T10:05:59.199Z,7.10
2017-08-17T10:08:25.933Z,6.70
2017-08-17T10:10:52.647Z,6.50
2017-08-17T10:13:19.365Z,7.60
2017-08-17T10:15:46.116Z,6.30
2017-08-17T10:18:12.885Z,6.97
2017-08-17T10:20:39.572Z,6.70
2017-08-17T10:23:06.308Z,6.60
2017-08-17T10:25:33.002Z,6.17
2017-08-17T10:28:00.110Z,6.30
2017-08-17T10:30:26.793Z,6.63
2017-08-17T10:32:53.563Z,6.87
2017-08-17T10:35:20.339Z,7.70
2017-08-17T10:37:47.182Z,6.17
2017-08-17T10:40:14.048Z,6.53
2017-08-17T10:42:40.844Z,6.70
2017-08-17T10:45:07.684Z,6.73
2017-08-17T10:47:34.473Z,6.83
2017-08-17T10:50:01.245Z,6.10
2017-08-17T10:52:27.958Z,6.00
2017-08-17T10:54:54.691Z,6.23
2017-08-17T10:57:21.393Z,5.47
2017-08-17T10:59:49.094Z,5.87
2017-08-17T11:02:15.829Z,6.30
2017-08-17T11:04:42.563Z,5.70
2017-08-17T11:07:09.275Z,6.03
2017-08-17T11:09:36.023Z,5.60
2017-08-17T11:12:02.747Z,6.10
2017-08-17T11:14:29.573Z,5.90
2017-08-17T11:16:56.389Z,5.87
2017-08-17T11:19:23.121Z,5.33
2017-08-17T11:21:49.848Z,5.63
2017-08-17T11:24:16.605Z,5.53
2017-08-17T11:26:43.318Z,6.47
2017-08-17T11:29:10.057Z,5.80
2017-08-17T11:31:36.836Z,5.93
2017-08-17T11:34:03.568Z,9.37
2017-08-17T11:36:30.328Z,5.70
2017-08-17T11:38:57.097Z,5.90
2017-08-17T11:41:23.905Z,6.00
2017-08-17T11:43:50.675Z,7.60
2017-08-17T11:46:17.401Z,6.80
2017-08-17T11:48:43.837Z,6.00
2017-08-17T11:51:10.128Z,6.17
2017-08-17T11:53:36.836Z,6.70
2017-08-17T11:56:03.558Z,6.60
2017-08-17T11:58:30.251Z,6.13
2017-08-17T12:00:57.018Z,6.20
2017-08-17T12:03:23.747Z,6.50
2017-08-17T12:05:50.454Z,6.23
2017-08-17T12:08:17.225Z,5.80
2017-08-17T12:10:43.937Z,6.27
2017-08-17T12:13:10.655Z,6.10
2017-08-17T12:15:37.357Z,6.60
2017-08-17T12:18:04.150Z,5.67
2017-08-17T12:20:30.877Z,6.43
2017-08-17T12:22:57.599Z,6.03
2017-08-17T12:25:25.215Z,6.53
2017-08-17T12:27:53.104Z,6.43
2017-08-17T12:30:19.914Z,6.43
2017-08-17T12:32:46.634Z,6.23
2017-08-17T12:35:13.407Z,6.40
2017-08-17T12:37:40.247Z,7.00
2017-08-17T12:40:07.000Z,6.70
2017-08-17T12:42:33.770Z,6.33
2017-08-17T12:45:00.508Z,6.23
2017-08-17T12:47:27.312Z,6.10
2017-08-17T12:49:54.084Z,6.57
2017-08-17T12:52:20.812Z,7.70
2017-08-17T12:54:48.509Z,6.90
2017-08-17T12:57:17.676Z,6.57
2017-08-17T12:59:49.556Z,6.20
2017-08-17T13:02:25.983Z,5.50
2017-08-17T13:04:53.831Z,6.60
2017-08-17T13:07:22.126Z,6.73
2017-08-17T13:10:03.047Z,7.40
2017-08-17T13:12:35.988Z,6.33
2017-08-17T13:17:50.988Z,6.43
2017-08-17T13:20:34.760Z,7.37
2017-08-17T13:23:01.546Z,6.30
2017-08-17T13:25:28.295Z,6.70
2017-08-17T13:27:55.017Z,7.27
2017-08-17T13:30:22.193Z,7.73
2017-08-17T13:32:48.962Z,7.60
2017-08-17T13:35:15.727Z,6.73
2017-08-17T13:37:42.506Z,7.43
2017-08-17T13:40:09.299Z,6.80
2017-08-17T13:42:36.048Z,7.07
2017-08-17T13:45:02.854Z,6.67
2017-08-17T13:47:29.569Z,7.40
2017-08-17T13:50:00.433Z,7.00
2017-08-17T13:52:27.812Z,7.43
2017-08-17T13:54:54.561Z,6.60
2017-08-17T13:57:21.252Z,7.80
2017-08-17T13:59:47.936Z,7.80
2017-08-17T14:02:14.701Z,8.73
2017-08-17T14:04:41.500Z,6.80
2017-08-17T14:07:08.363Z,6.53
2017-08-17T14:09:35.202Z,7.27
2017-08-17T14:12:02.367Z,6.87
2017-08-17T14:14:29.307Z,7.23
2017-08-17T14:16:56.077Z,10.10
2017-08-17T14:19:22.873Z,7.57
2017-08-17T14:21:49.572Z,6.60
2017-08-17T14:24:18.656Z,6.67
2017-08-17T14:26:48.666Z,6.53
2017-08-17T14:29:15.594Z,6.33
2017-08-17T14:31:42.380Z,6.63
2017-08-17T14:34:10.530Z,6.57
2017-08-17T14:36:38.180Z,6.67
2017-08-17T14:39:05.343Z,8.27
2017-08-17T14:41:32.037Z,7.17
2017-08-17T14:43:58.765Z,5.90
2017-08-17T14:46:26.921Z,6.43
2017-08-17T14:48:53.811Z,5.97
2017-08-17T14:51:20.506Z,6.00
2017-08-17T14:53:47.268Z,5.93
2017-08-17T14:56:14.995Z,6.40
2017-08-17T14:58:41.726Z,7.17
2017-08-17T15:01:08.460Z,6.33
2017-08-17T15:03:35.168Z,6.50
2017-08-17T15:06:01.929Z,6.57
2017-08-17T15:08:28.728Z,7.33
2017-08-17T15:10:55.481Z,7.70
2017-08-17T15:13:22.204Z,8.57
2017-08-17T15:15:49.033Z,7.73
2017-08-17T15:18:15.769Z,8.67
2017-08-17T15:20:42.724Z,7.53
2017-08-17T15:23:09.436Z,9.57
2017-08-17T15:25:36.293Z,10.30
2017-08-17T15:28:03.058Z,8.30
2017-08-17T15:30:29.789Z,8.27
2017-08-17T15:32:56.483Z,8.63
2017-08-17T15:35:23.184Z,7.93
2017-08-17T15:37:49.865Z,8.73
2017-08-17T15:40:16.630Z,9.07
2017-08-17T15:42:43.868Z,9.20
2017-08-17T15:45:11.503Z,9.30
2017-08-17T15:47:38.189Z,9.20
2017-08-17T15:50:04.868Z,10.53
2017-08-17T15:52:31.862Z,11.30
2017-08-17T15:54:58.627Z,11.07
2017-08-17T15:57:25.340Z,10.30
2017-08-17T15:59:52.165Z,10.30
2017-08-17T16:02:20.108Z,10.70
2017-08-17T16:04:46.957Z,11.43
2017-08-17T16:07:14.694Z,12.10
2017-08-17T16:09:41.411Z,11.00
2017-08-17T16:12:08.121Z,11.30
2017-08-17T16:17:19.534Z,11.83
2017-08-17T16:19:46.247Z,9.87
2017-08-17T16:22:12.943Z,10.23
2017-08-17T16:24:39.629Z,9.50
2017-08-17T16:27:06.317Z,11.27
2017-08-17T16:29:33.039Z,11.67
2017-08-17T16:31:59.760Z,11.37
2017-08-17T16:34:26.477Z,12.67
2017-08-17T16:36:53.205Z,13.53
2017-08-17T16:39:20.833Z,13.00
2017-08-17T16:41:47.605Z,16.13
2017-08-17T16:44:14.316Z,11.53
2017-08-17T16:46:41.081Z,12.37
2017-08-17T16:49:07.797Z,14.57
2017-08-17T16:51:34.580Z,13.20
2017-08-17T16:54:01.524Z,13.90
2017-08-17T16:56:28.497Z,14.03
2017-08-17T16:59:23.631Z,15.40
2017-08-17T17:01:50.598Z,13.27
2017-08-17T17:04:17.537Z,14.30
2017-08-17T17:06:44.269Z,14.67
2017-08-17T17:09:11.840Z,14.13
2017-08-17T17:11:38.630Z,15.97
2017-08-17T17:14:05.584Z,13.83
2017-08-17T17:16:32.393Z,13.77
2017-08-17T17:18:59.400Z,15.07
2017-08-17T17:21:26.139Z,13.90
2017-08-17T17:23:52.872Z,15.53
2017-08-17T17:26:19.630Z,14.87
2017-08-17T17:28:46.392Z,14.97
2017-08-17T17:31:13.150Z,12.90
2017-08-17T17:33:39.932Z,15.02
2017-08-17T17:36:06.664Z,15.17
2017-08-17T17:38:33.377Z,15.40
2017-08-17T17:41:45.456Z,15.30
2017-08-17T17:44:12.148Z,17.20
2017-08-17T17:46:38.819Z,14.67
2017-08-17T17:49:05.504Z,15.63
2017-08-17T17:51:32.199Z,16.50
2017-08-17T17:53:58.884Z,16.10
2017-08-17T17:56:25.600Z,13.98
2017-08-17T17:58:52.289Z,14.25
2017-08-17T18:01:19.004Z,15.68
2017-08-17T18:03:45.696Z,16.92
2017-08-17T18:06:12.404Z,15.32
2017-08-17T18:08:39.083Z,14.60
2017-08-17T18:11:06.795Z,17.05
2017-08-17T18:13:33.481Z,16.90
2017-08-17T18:16:00.168Z,18.10
2017-08-17T18:18:26.853Z,15.90
2017-08-17T18:20:53.544Z,18.05
2017-08-17T18:23:20.266Z,17.30
2017-08-17T18:25:46.952Z,19.67
2017-08-17T18:28:13.664Z,16.33
2017-08-17T18:30:40.356Z,17.90
2017-08-17T18:33:07.068Z,18.25
2017-08-17T18:35:33.763Z,15.60
2017-08-17T18:38:00.472Z,15.77
2017-08-17T18:40:27.152Z,18.45
2017-08-17T18:42:53.860Z,18.55
2017-08-17T18:45:20.548Z,16.70
2017-08-17T18:47:47.267Z,16.45
2017-08-17T18:50:13.952Z,17.73
2017-08-17T18:52:40.640Z,17.83
2017-08-17T18:55:07.325Z,18.60
2017-08-17T18:57:34.006Z,17.20
2017-08-17T19:00:00.702Z,18.05
2017-08-17T19:02:27.385Z,18.00
2017-08-17T19:04:54.102Z,17.92
2017-08-17T19:07:20.787Z,19.55
2017-08-17T19:09:47.492Z,19.73
2017-08-17T19:12:14.176Z,17.02
2017-08-17T19:14:40.883Z,19.25
2017-08-17T19:17:07.569Z,18.08
2017-08-17T19:19:34.276Z,18.87
2017-08-17T19:22:00.963Z,17.15
2017-08-17T19:24:27.645Z,16.67
2017-08-17T19:26:54.360Z,17.17
2017-08-17T19:29:21.049Z,19.12
2017-08-17T19:31:47.728Z,18.67
2017-08-17T19:34:14.420Z,18.08
2017-08-17T19:36:41.136Z,18.67
2017-08-17T19:39:07.815Z,17.98
2017-08-17T19:41:34.530Z,16.85
2017-08-17T19:44:01.211Z,16.02
2017-08-17T19:46:27.925Z,15.73
2017-08-17T19:48:54.617Z,15.57
2017-08-17T19:51:21.331Z,13.32
2017-08-17T19:53:48.017Z,13.25
2017-08-17T19:56:14.700Z,11.60
2017-08-17T19:58:41.379Z,12.63
2017-08-17T20:01:08.073Z,15.50
2017-08-17T20:03:34.783Z,12.93
2017-08-17T20:06:01.464Z,12.02
2017-08-17T20:08:28.163Z,11.05
2017-08-17T20:10:54.848Z,11.40
2017-08-17T20:13:21.548Z,10.90
2017-08-17T20:15:48.252Z,11.07
2017-08-17T20:18:14.968Z,11.12
2017-08-17T20:20:41.652Z,13.10
2017-08-17T20:23:08.355Z,10.52
2017-08-17T20:25:35.035Z,11.00
2017-08-17T20:28:01.718Z,10.05
2017-08-17T20:30:28.420Z,9.90
2017-08-17T20:32:55.095Z,10.32
2017-08-17T20:35:21.771Z,9.50
2017-08-17T20:37:48.439Z,9.73
2017-08-17T20:40:15.111Z,8.80
2017-08-17T20:42:41.788Z,9.05
2017-08-17T20:45:08.496Z,9.93
2017-08-17T20:47:35.176Z,10.80
2017-08-17T20:50:01.856Z,8.60
2017-08-17T20:52:28.540Z,10.02
2017-08-17T20:57:28.364Z,10.75
2017-08-17T20:59:55.042Z,10.18
2017-08-17T21:02:21.724Z,10.40
2017-08-17T21:04:48.399Z,9.82
2017-08-17T21:07:15.099Z,9.18
2017-08-17T21:09:41.780Z,11.15
2017-08-17T21:12:08.460Z,10.35
2017-08-17T21:14:35.161Z,11.52
2017-08-17T21:17:01.869Z,12.40
2017-08-17T21:19:28.548Z,11.35
2017-08-17T21:21:55.272Z,10.70
2017-08-17T21:24:21.947Z,10.60
2017-08-17T21:26:48.627Z,11.35
2017-08-17T21:29:15.311Z,11.75
2017-08-17T21:31:42.000Z,10.95
2017-08-17T21:34:08.720Z,12.10
2017-08-17T21:36:35.432Z,11.75
2017-08-17T21:39:02.116Z,11.60
2017-08-17T21:41:28.820Z,10.98
2017-08-17T21:43:55.500Z,10.20
2017-08-17T21:46:22.208Z,11.18
2017-08-17T21:48:48.895Z,10.95
2017-08-17T21:51:15.627Z,10.70
2017-08-17T21:53:42.304Z,10.55
2017-08-17T21:56:09.027Z,11.00
2017-08-17T21:58:35.704Z,10.40
2017-08-17T22:01:02.380Z,10.40
2017-08-17T22:03:29.062Z,10.25
2017-08-17T22:05:55.784Z,11.38
2017-08-17T22:08:22.512Z,11.35
2017-08-17T22:10:49.196Z,11.50
2017-08-17T22:13:15.880Z,12.27
2017-08-17T22:15:42.560Z,12.40
2017-08-17T22:18:09.247Z,12.45
2017-08-17T22:20:35.923Z,12.27
2017-08-17T22:23:02.607Z,10.73
2017-08-17T22:25:29.308Z,10.55
2017-08-17T22:27:55.988Z,10.30
2017-08-17T22:30:22.684Z,9.40
2017-08-17T22:32:49.368Z,10.50
2017-08-17T22:35:16.074Z,10.45
2017-08-17T22:37:42.757Z,10.07
2017-08-17T22:40:09.460Z,10.27
2017-08-17T22:42:36.132Z,9.93
2017-08-17T22:45:02.831Z,10.05
2017-08-17T22:47:29.511Z,9.70
2017-08-17T22:49:56.206Z,9.65
2017-08-17T22:52:22.892Z,9.23
2017-08-17T22:54:49.581Z,9.98
2017-08-17T22:57:16.283Z,10.27
2017-08-17T22:59:42.957Z,9.60
2017-08-17T23:02:09.660Z,9.80
2017-08-17T23:04:36.353Z,9.95
2017-08-17T23:07:03.080Z,8.85
2017-08-17T23:09:29.780Z,9.73
2017-08-17T23:11:56.484Z,8.77
2017-08-17T23:14:23.172Z,8.65
2017-08-17T23:16:49.853Z,9.75
2017-08-17T23:19:16.528Z,9.30
2017-08-17T23:21:43.209Z,9.10
2017-08-17T23:24:09.908Z,10.85
2017-08-17T23:26:36.587Z,8.90
2017-08-17T23:29:03.292Z,9.52
2017-08-17T23:31:29.963Z,9.70
2017-08-17T23:33:56.676Z,9.68
2017-08-17T23:36:23.348Z,9.50
2017-08-17T23:38:50.021Z,8.77
2017-08-17T23:41:16.696Z,9.23
2017-08-17T23:43:43.371Z,9.38
2017-08-17T23:46:10.044Z,8.60
2017-08-17T23:48:36.715Z,8.90
2017-08-17T23:51:03.416Z,7.68
2017-08-17T23:53:30.095Z,9.40
2017-08-17T23:55:56.800Z,8.75
2017-08-17T23:58:23.480Z,8.38
